Time;durP1;ratioP1;P1;durP2;ratioP2;P2;SDS_P1;SDS_P2;PMS_P1;PMS_P2;Temp;Humidity;BMP_temperature;BMP_pressure;BME280_temperature;BME280_humidity;BME280_pressure;Samples;Min_cycle;Max_cycle;Signal;HPM_P1;HPM_P2
2021/01/29 00:01:39;;;;;;;7.25;2.92;;;;;;;0.04;90.07;100114.22;6271634;28;20541;-76
2021/01/29 00:04:40;;;;;;;6.30;2.88;;;;;;;0.05;89.78;100110.78;6271422;28;20056;-78
2021/01/29 00:07:42;;;;;;;7.07;2.40;;;;;;;0.11;88.43;100105.47;6271324;28;20087;-78
2021/01/29 00:10:42;;;;;;;5.20;2.60;;;;;;;0.14;87.92;100097.66;6269364;28;20135;-79
2021/01/29 00:13:43;;;;;;;6.78;2.80;;;;;;;0.12;88.39;100089.91;6271563;28;20131;-79
2021/01/29 00:16:45;;;;;;;7.00;3.10;;;;;;;0.11;88.36;100084.81;6271444;28;20049;-78
2021/01/29 00:19:46;;;;;;;9.90;2.92;;;;;;;0.03;88.14;100076.34;6271079;28;20060;-79
2021/01/29 00:22:47;;;;;;;10.43;2.60;;;;;;;0.02;88.97;100066.91;6258421;28;20490;-78
2021/01/29 00:25:50;;;;;;;6.18;3.10;;;;;;;-0.04;89.09;100078.22;6246733;28;20052;-79
2021/01/29 00:28:51;;;;;;;8.55;3.13;;;;;;;-0.06;88.34;100078.25;6245771;28;20049;-78
2021/01/29 00:31:53;;;;;;;8.27;2.80;;;;;;;-0.08;88.98;100072.28;6260669;28;20515;-79
2021/01/29 00:34:54;;;;;;;7.70;3.22;;;;;;;-0.09;90.00;100073.16;6271015;28;20053;-79
2021/01/29 00:37:55;;;;;;;9.02;2.63;;;;;;;0.03;89.21;100074.63;6270917;28;20060;-78
2021/01/29 00:40:56;;;;;;;5.63;2.65;;;;;;;-0.03;88.87;100075.59;6270244;28;20056;-79
2021/01/29 00:43:56;;;;;;;9.13;2.97;;;;;;;0.01;89.28;100073.81;6271244;28;20045;-79
2021/01/29 00:46:58;;;;;;;9.75;3.00;;;;;;;-0.05;89.24;100071.34;6273749;28;20567;-79
2021/01/29 00:49:59;;;;;;;12.13;3.53;;;;;;;-0.08;89.95;100053.34;6275699;28;20053;-78
2021/01/29 00:53:00;;;;;;;9.48;2.90;;;;;;;-0.04;89.95;100037.75;6259865;28;20057;-79
2021/01/29 00:56:01;;;;;;;7.15;2.75;;;;;;;0.01;89.37;100026.47;6251834;28;20050;-78
2021/01/29 00:59:02;;;;;;;6.03;2.40;;;;;;;0.08;89.53;100028.03;6250857;28;20080;-78
2021/01/29 01:02:04;;;;;;;8.52;2.55;;;;;;;0.12;88.56;100022.75;6251026;28;20049;-78
2021/01/29 01:05:06;;;;;;;6.70;2.80;;;;;;;0.06;88.41;100020.31;6251156;28;20482;-77
2021/01/29 01:08:07;;;;;;;10.45;3.33;;;;;;;0.02;88.33;100017.84;6271645;23;20057;-78
2021/01/29 01:11:07;;;;;;;6.20;2.88;;;;;;;0.00;89.03;100015.31;6250348;28;20060;-78
2021/01/29 01:14:08;;;;;;;5.72;3.53;;;;;;;0.02;88.18;100010.94;6250629;28;20053;-78
2021/01/29 01:17:10;;;;;;;8.60;3.45;;;;;;;-0.05;87.78;100017.09;6250492;28;20099;-78
2021/01/29 01:20:14;;;;;;;8.25;3.47;;;;;;;-0.02;88.99;100009.31;6250239;28;20509;-77
2021/01/29 01:23:15;;;;;;;8.88;3.85;;;;;;;-0.06;88.77;100000.75;6250339;28;20133;-77
2021/01/29 01:26:16;;;;;;;6.68;3.08;;;;;;;0.01;88.81;99995.47;6251243;28;20088;-79
2021/01/29 01:29:16;;;;;;;9.75;3.53;;;;;;;-0.01;88.36;99990.34;6249459;28;20080;-76
2021/01/29 01:32:18;;;;;;;7.82;3.67;;;;;;;-0.07;89.06;99970.66;6250311;28;20124;-77
2021/01/29 01:35:20;;;;;;;6.95;3.17;;;;;;;-0.06;88.85;99951.69;6250023;28;20052;-76
2021/01/29 01:38:21;;;;;;;10.35;3.35;;;;;;;0.07;88.18;99946.25;6249665;28;20050;-76
2021/01/29 01:41:22;;;;;;;8.82;3.90;;;;;;;-0.08;89.27;99934.56;6249521;28;20180;-79
2021/01/29 01:44:29;;;;;;;7.43;3.65;;;;;;;0.09;89.19;99924.69;6249983;28;20060;-78
2021/01/29 01:47:35;;;;;;;6.40;3.90;;;;;;;0.00;89.24;99912.00;6249625;28;20049;-78
2021/01/29 01:50:39;;;;;;;9.18;3.45;;;;;;;-0.10;90.11;99902.75;6249386;28;20049;-78
2021/01/29 01:53:45;;;;;;;8.95;4.30;;;;;;;-0.06;90.07;99891.44;6225279;28;20080;-77
2021/01/29 01:56:48;;;;;;;6.07;3.75;;;;;;;-0.05;89.64;99887.97;6262883;28;20053;-76
2021/01/29 01:59:52;;;;;;;9.30;4.15;;;;;;;-0.05;89.88;99886.25;6273379;28;20049;-79
2021/01/29 02:02:59;;;;;;;7.43;3.75;;;;;;;0.13;89.34;99878.94;6274531;28;20048;-77
2021/01/29 02:06:02;;;;;;;7.68;3.85;;;;;;;0.02;88.69;99868.88;6273941;28;20053;-78
2021/01/29 02:09:06;;;;;;;9.27;4.70;;;;;;;-0.02;89.33;99869.84;6273880;28;20068;-77
2021/01/29 02:12:07;;;;;;;12.02;3.97;;;;;;;0.07;89.94;99863.59;6274062;28;20135;-78
2021/01/29 02:15:11;;;;;;;6.65;3.78;;;;;;;-0.02;90.55;99857.78;6274329;28;20060;-78
2021/01/29 02:18:25;;;;;;;9.40;4.07;;;;;;;-0.09;90.63;99853.66;6273775;28;20049;-78
2021/01/29 02:21:56;;;;;;;9.48;4.18;;;;;;;-0.09;90.80;99834.72;6263945;28;20041;-78
2021/01/29 02:25:28;;;;;;;10.38;4.28;;;;;;;0.09;89.00;99826.53;6250101;28;20050;-78
2021/01/29 02:28:49;;;;;;;12.00;4.15;;;;;;;0.02;89.59;99819.81;6248554;28;20521;-78
2021/01/29 02:32:15;;;;;;;14.10;4.90;;;;;;;-0.11;90.06;99814.09;6249095;28;20103;-78
2021/01/29 02:35:53;;;;;;;11.50;5.28;;;;;;;0.01;90.69;99806.94;6248934;28;20045;-78
2021/01/29 02:39:08;;;;;;;12.43;4.70;;;;;;;-0.07;91.20;99800.22;6248535;28;20060;-78
2021/01/29 02:42:31;;;;;;;7.93;4.60;;;;;;;-0.01;90.07;99784.56;6248847;28;20578;-78
2021/01/29 02:45:40;;;;;;;12.68;4.95;;;;;;;-0.05;91.16;99772.63;6248708;28;20053;-78
2021/01/29 02:48:54;;;;;;;10.32;5.22;;;;;;;0.04;91.55;99768.09;6247861;28;20123;-78
2021/01/29 02:52:00;;;;;;;11.98;5.03;;;;;;;0.13;91.23;99754.94;6248187;28;20050;-78
2021/01/29 02:55:11;;;;;;;9.18;5.05;;;;;;;0.18;90.66;99745.34;6248732;28;20060;-78
2021/01/29 02:58:20;;;;;;;13.30;5.47;;;;;;;0.15;90.09;99748.88;6248876;28;20053;-78
2021/01/29 03:01:28;;;;;;;10.40;5.63;;;;;;;-0.03;92.28;99726.97;6247930;28;20410;-78
2021/01/29 03:04:34;;;;;;;14.77;5.45;;;;;;;0.01;92.23;99725.16;6248074;28;20049;-78
2021/01/29 03:07:41;;;;;;;17.42;5.63;;;;;;;0.01;91.67;99719.97;6247685;28;20459;-79
2021/01/29 03:10:50;;;;;;;10.57;5.70;;;;;;;0.04;92.30;99701.78;6246006;28;20050;-78
2021/01/29 03:13:58;;;;;;;13.50;6.20;;;;;;;-0.03;92.91;99698.56;6246974;28;20045;-78
2021/01/29 03:17:06;;;;;;;12.77;5.93;;;;;;;0.15;92.25;99693.78;6246573;28;20050;-78
2021/01/29 03:20:10;;;;;;;14.35;6.55;;;;;;;0.08;92.12;99697.41;6245835;28;20460;-78
2021/01/29 03:23:17;;;;;;;13.90;6.65;;;;;;;0.08;91.83;99689.66;6246667;28;20087;-77
2021/01/29 03:26:24;;;;;;;14.63;6.13;;;;;;;0.01;91.90;99686.41;6259877;28;20053;-78
2021/01/29 03:29:45;;;;;;;13.25;6.78;;;;;;;0.07;93.36;99677.63;6270459;28;20053;-78
2021/01/29 03:32:50;;;;;;;10.57;5.78;;;;;;;0.10;92.84;99673.25;6271311;28;20045;-78
2021/01/29 03:35:57;;;;;;;17.77;7.05;;;;;;;-0.02;93.54;99668.41;6270886;28;20064;-77
2021/01/29 03:39:06;;;;;;;13.88;6.78;;;;;;;-0.01;93.34;99649.44;6270823;28;20052;-77
2021/01/29 03:42:18;;;;;;;13.30;7.05;;;;;;;-0.08;93.51;99635.00;6270926;28;20045;-77
2021/01/29 03:45:26;;;;;;;17.35;7.13;;;;;;;-0.03;94.66;99625.41;6271101;28;20502;-77
2021/01/29 03:48:34;;;;;;;16.45;7.18;;;;;;;-0.09;95.28;99622.97;6270418;28;20063;-77
2021/01/29 03:51:46;;;;;;;15.90;7.63;;;;;;;-0.15;96.26;99612.81;6253874;28;20053;-77
2021/01/29 03:54:56;;;;;;;15.50;6.72;;;;;;;-0.16;96.27;99614.56;6246055;28;20498;-77
2021/01/29 03:58:04;;;;;;;17.02;7.13;;;;;;;-0.28;96.71;99617.47;6269631;28;20049;-77
2021/01/29 04:01:11;;;;;;;15.15;7.72;;;;;;;-0.26;97.42;99608.81;6221080;28;20049;-75
2021/01/29 04:04:24;;;;;;;14.30;7.47;;;;;;;-0.24;97.53;99600.16;6221391;28;20050;-77
2021/01/29 04:07:28;;;;;;;19.85;7.75;;;;;;;-0.25;97.48;99591.59;6203790;28;500423;-77
2021/01/29 04:10:31;;;;;;;16.40;8.60;;;;;;;-0.34;97.74;99579.78;6224636;28;20050;-75
2021/01/29 04:13:38;;;;;;;16.60;7.38;;;;;;;-0.31;97.34;99577.13;6222180;28;20049;-75
2021/01/29 04:16:43;;;;;;;12.70;7.40;;;;;;;-0.20;98.00;99573.38;6221952;28;20054;-74
2021/01/29 04:19:47;;;;;;;23.30;7.80;;;;;;;-0.21;96.87;99567.38;6226757;28;20132;-77
2021/01/29 04:22:53;;;;;;;16.55;7.93;;;;;;;-0.27;97.98;99570.16;6246176;28;20046;-77
2021/01/29 04:26:01;;;;;;;15.05;7.68;;;;;;;-0.26;98.24;99566.66;6246200;28;20059;-75
2021/01/29 04:29:07;;;;;;;19.48;9.38;;;;;;;-0.19;97.90;99557.00;6246058;28;20053;-75
2021/01/29 04:32:11;;;;;;;18.85;8.43;;;;;;;-0.12;97.68;99540.44;6247259;28;20064;-75
2021/01/29 04:35:15;;;;;;;19.30;8.55;;;;;;;-0.16;98.36;99536.25;6246262;28;20054;-77
2021/01/29 04:38:22;;;;;;;15.50;8.00;;;;;;;-0.27;97.73;99536.59;6246017;28;20053;-75
2021/01/29 04:41:59;;;;;;;16.80;8.38;;;;;;;-0.26;98.17;99523.63;6245934;28;20045;-77
2021/01/29 04:45:27;;;;;;;16.13;7.80;;;;;;;-0.32;97.81;99522.94;6246293;28;20075;-78
2021/01/29 04:48:36;;;;;;;17.08;7.88;;;;;;;-0.40;98.74;99517.19;6245579;28;20107;-77
2021/01/29 04:51:57;;;;;;;17.08;8.48;;;;;;;-0.38;99.06;99502.47;6245468;28;20045;-78
2021/01/29 04:55:27;;;;;;;18.90;8.20;;;;;;;-0.35;98.86;99499.81;6246014;28;20056;-76
2021/01/29 04:58:31;;;;;;;15.70;8.50;;;;;;;-0.43;99.30;99500.03;6246993;28;20096;-76
2021/01/29 05:01:48;;;;;;;17.20;8.18;;;;;;;-0.45;99.31;99488.06;6245464;28;20053;-75
2021/01/29 05:05:14;;;;;;;16.77;9.07;;;;;;;-0.44;99.01;99482.88;6245623;28;20100;-77
2021/01/29 05:08:36;;;;;;;16.05;8.57;;;;;;;-0.45;98.83;99470.84;6243614;28;20426;-77
2021/01/29 05:12:09;;;;;;;18.02;8.95;;;;;;;-0.51;99.06;99456.38;6245910;28;20057;-75
2021/01/29 05:15:24;;;;;;;22.58;8.60;;;;;;;-0.43;99.22;99463.06;6245312;28;20052;-77
2021/01/29 05:19:03;;;;;;;20.10;8.70;;;;;;;-0.52;98.90;99452.09;6244982;28;20418;-77
2021/01/29 05:22:25;;;;;;;;;;;;;;;-0.54;99.41;99455.63;6233668;28;20505;-75
2021/01/29 05:25:53;;;;;;;17.02;8.70;;;;;;;-0.55;99.69;99444.44;6242211;28;20270;-78
2021/01/29 05:29:11;;;;;;;24.90;8.98;;;;;;;-0.61;100.00;99424.00;6238474;28;20046;-77
2021/01/29 05:32:31;;;;;;;18.92;8.90;;;;;;;-0.51;100.00;99420.25;6247375;28;20556;-77
2021/01/29 05:35:44;;;;;;;15.27;7.70;;;;;;;-0.39;99.05;99411.31;6248159;28;20103;-77
2021/01/29 05:39:00;;;;;;;22.63;8.50;;;;;;;-0.58;99.55;99392.13;6241197;28;20054;-76
2021/01/29 05:42:21;;;;;;;18.55;9.10;;;;;;;-0.45;99.68;99387.44;6250166;28;20046;-77
2021/01/29 05:45:43;;;;;;;16.05;8.02;;;;;;;-0.53;100.00;99388.50;6250876;28;20102;-78
2021/01/29 05:49:11;;;;;;;17.83;9.05;;;;;;;-0.59;100.00;99377.50;6249005;28;20052;-77
2021/01/29 05:53:00;;;;;;;15.02;8.57;;;;;;;-0.60;99.70;99371.50;6250097;28;20049;-75
2021/01/29 05:56:06;;;;;;;27.60;9.30;;;;;;;-0.63;100.00;99371.63;6242171;28;20091;-78
2021/01/29 05:59:39;;;;;;;17.13;9.02;;;;;;;-0.60;100.00;99363.75;6249315;28;20053;-77
2021/01/29 06:02:58;;;;;;;19.92;9.77;;;;;;;-0.65;100.00;99364.78;6250924;28;20042;-77
2021/01/29 06:06:18;;;;;;;20.75;8.88;;;;;;;-0.56;100.00;99351.63;6246533;28;20513;-77
2021/01/29 06:09:39;;;;;;;;;;;;;;;-0.52;100.00;99348.06;6249241;28;20423;-76
2021/01/29 06:12:58;;;;;;;27.00;10.82;;;;;;;-0.69;100.00;99332.25;6228016;28;19925;-77
2021/01/29 06:16:24;;;;;;;19.23;9.73;;;;;;;-0.64;100.00;99330.38;6243313;28;20049;-77
2021/01/29 06:19:49;;;;;;;21.00;10.18;;;;;;;-0.67;100.00;99322.75;6248805;28;20053;-77
2021/01/29 06:23:16;;;;;;;19.35;10.13;;;;;;;-0.61;100.00;99312.22;6250241;28;20049;-77
2021/01/29 06:26:33;;;;;;;26.80;11.43;;;;;;;-0.69;100.00;99304.72;6249056;28;20045;-77
2021/01/29 06:29:53;;;;;;;20.90;10.93;;;;;;;-0.67;100.00;99297.78;6248452;28;20418;-77
2021/01/29 06:33:39;;;;;;;19.77;10.18;;;;;;;-0.71;100.00;99293.63;6248922;28;20054;-77
2021/01/29 06:36:54;;;;;;;23.42;10.32;;;;;;;-0.72;100.00;99291.09;6248497;28;20049;-77
2021/01/29 06:40:04;;;;;;;20.05;10.43;;;;;;;-0.68;100.00;99284.91;6246476;28;20053;-77
2021/01/29 06:43:24;;;;;;;21.48;10.68;;;;;;;-0.64;100.00;99289.09;6248227;28;20046;-78
2021/01/29 06:46:46;;;;;;;21.67;10.80;;;;;;;-0.64;100.00;99277.03;6248369;28;20053;-78
2021/01/29 06:50:02;;;;;;;21.67;11.60;;;;;;;-0.54;100.00;99272.47;6223506;28;20053;-78
2021/01/29 06:53:33;;;;;;;20.40;10.60;;;;;;;-0.57;100.00;99269.97;6224050;28;20458;-77
2021/01/29 06:57:05;;;;;;;21.58;11.13;;;;;;;-0.53;100.00;99261.25;6221830;28;20104;-77
2021/01/29 07:00:24;;;;;;;29.02;10.70;;;;;;;-0.58;100.00;99255.38;6223272;28;20096;-78
2021/01/29 07:03:45;;;;;;;21.55;11.35;;;;;;;-0.57;100.00;99257.91;6223867;28;20053;-77
2021/01/29 07:07:00;;;;;;;20.65;11.10;;;;;;;-0.59;100.00;99246.81;6244936;28;20049;-78
2021/01/29 07:10:27;;;;;;;24.40;11.40;;;;;;;-0.58;100.00;99253.66;6266527;23;20045;-78
2021/01/29 07:13:52;;;;;;;22.50;11.68;;;;;;;-0.56;100.00;99251.00;6247989;28;20053;-78
2021/01/29 07:17:06;;;;;;;20.92;10.65;;;;;;;-0.62;100.00;99251.22;6245746;28;20046;-79
2021/01/29 07:20:25;;;;;;;22.52;11.68;;;;;;;-0.57;100.00;99234.69;6245898;28;20103;-79
2021/01/29 07:23:46;;;;;;;25.38;12.25;;;;;;;-0.55;100.00;99237.22;6245352;28;20041;-78
2021/01/29 07:27:04;;;;;;;23.17;11.25;;;;;;;-0.45;100.00;99230.88;6247273;28;20085;-78
2021/01/29 07:30:15;;;;;;;20.20;11.35;;;;;;;-0.42;100.00;99230.75;6247060;28;20049;-79
2021/01/29 07:33:27;;;;;;;23.55;11.73;;;;;;;-0.47;100.00;99231.81;6247598;28;20049;-79
2021/01/29 07:36:59;;;;;;;22.20;11.32;;;;;;;-0.42;100.00;99227.34;6246951;28;20049;-80
2021/01/29 07:40:27;;;;;;;23.35;12.10;;;;;;;-0.52;100.00;99230.22;6231396;28;20387;-80
2021/01/29 07:43:41;;;;;;;22.77;11.98;;;;;;;-0.51;100.00;99223.31;6211898;28;20062;-79
2021/01/29 07:47:03;;;;;;;23.17;12.70;;;;;;;-0.56;100.00;99227.78;6250776;28;20036;-77
2021/01/29 07:50:20;;;;;;;22.77;11.95;;;;;;;-0.57;100.00;99229.53;6270462;28;20053;-78
2021/01/29 07:53:32;;;;;;;22.38;12.15;;;;;;;-0.57;100.00;99219.22;6257943;28;20107;-80
2021/01/29 07:56:49;;;;;;;20.52;11.65;;;;;;;-0.45;100.00;99217.13;6247067;28;20132;-80
2021/01/29 08:00:03;;;;;;;20.25;10.88;;;;;;;-0.38;100.00;99211.69;6245289;28;20507;-74
2021/01/29 08:03:33;;;;;;;25.67;12.43;;;;;;;-0.58;100.00;99214.94;6245233;28;20042;-73
2021/01/29 08:06:44;;;;;;;22.33;12.35;;;;;;;-0.62;100.00;99204.78;6244441;28;20095;-73
2021/01/29 08:09:51;;;;;;;22.35;12.30;;;;;;;-0.42;100.00;99199.78;6245442;28;20049;-73
2021/01/29 08:13:02;;;;;;;23.05;12.10;;;;;;;-0.48;100.00;99210.31;6244684;28;20053;-74
2021/01/29 08:16:18;;;;;;;18.95;11.25;;;;;;;-0.46;100.00;99207.69;6246550;28;20049;-76
2021/01/29 08:19:25;;;;;;;21.35;11.77;;;;;;;-0.52;100.00;99207.00;6244448;28;20053;-72
2021/01/29 08:22:45;;;;;;;23.95;13.23;;;;;;;-0.40;100.00;99205.75;6246134;28;20049;-73
2021/01/29 08:25:59;;;;;;;;;;;;;;;-0.54;100.00;99198.47;6247040;28;20049;-76
2021/01/29 08:29:20;;;;;;;23.00;11.82;;;;;;;-0.49;100.00;99192.31;6245890;28;19944;-79
2021/01/29 08:32:53;;;;;;;20.48;11.80;;;;;;;-0.55;100.00;99193.34;6246735;28;20049;-76
2021/01/29 08:36:20;;;;;;;21.58;12.10;;;;;;;-0.40;100.00;99189.44;6246083;28;20513;-76
2021/01/29 08:39:24;;;;;;;25.30;13.35;;;;;;;-0.58;100.00;99189.16;6245919;28;20053;-77
2021/01/29 08:42:39;;;;;;;22.92;11.95;;;;;;;-0.38;100.00;99183.31;6246306;28;20045;-77
2021/01/29 08:45:51;;;;;;;24.20;14.10;;;;;;;-0.52;100.00;99188.94;6246376;28;20080;-77
2021/01/29 08:49:07;;;;;;;28.35;14.38;;;;;;;-0.51;100.00;99184.63;6268829;28;20055;-78
2021/01/29 08:52:19;;;;;;;25.83;13.25;;;;;;;-0.37;100.00;99176.41;6256770;28;20087;-77
2021/01/29 08:55:30;;;;;;;25.70;13.20;;;;;;;-0.45;100.00;99178.44;6246148;28;20053;-77
2021/01/29 08:58:36;;;;;;;21.60;12.70;;;;;;;-0.45;100.00;99168.09;6246016;28;20053;-76
2021/01/29 09:01:43;;;;;;;20.50;12.13;;;;;;;-0.41;100.00;99167.94;6246164;28;20052;-74
2021/01/29 09:04:53;;;;;;;23.27;12.60;;;;;;;-0.36;100.00;99160.06;6245930;28;20409;-75
2021/01/29 09:07:59;;;;;;;21.55;12.63;;;;;;;-0.28;100.00;99152.88;6248765;28;20052;-75
2021/01/29 09:11:10;;;;;;;21.67;11.55;;;;;;;-0.37;100.00;99151.44;6249270;28;20056;-73
2021/01/29 09:14:24;;;;;;;23.25;12.63;;;;;;;-0.43;100.00;99145.66;6251028;28;20057;-75
2021/01/29 09:17:35;;;;;;;23.30;12.27;;;;;;;-0.46;100.00;99154.34;6257203;28;20048;-74
2021/01/29 09:20:44;;;;;;;20.58;12.45;;;;;;;-0.32;100.00;99147.00;6268496;28;20045;-76
2021/01/29 09:23:56;;;;;;;23.60;12.80;;;;;;;-0.37;100.00;99150.59;6250602;28;20387;-75
2021/01/29 09:27:20;;;;;;;26.25;13.73;;;;;;;-0.39;100.00;99148.09;6250302;28;20140;-73
2021/01/29 09:30:29;;;;;;;28.75;13.23;;;;;;;-0.30;100.00;99146.94;6250446;28;20056;-72
2021/01/29 09:33:37;;;;;;;26.75;14.07;;;;;;;-0.33;100.00;99149.59;6250402;28;20517;-75
2021/01/29 09:36:47;;;;;;;28.37;15.53;;;;;;;-0.32;100.00;99143.53;6250020;28;20457;-74
2021/01/29 09:39:59;;;;;;;27.95;15.35;;;;;;;-0.33;100.00;99149.59;6247948;28;20056;-73
2021/01/29 09:43:11;;;;;;;29.90;15.05;;;;;;;-0.36;100.00;99142.81;6250314;28;20045;-76
2021/01/29 09:46:19;;;;;;;27.70;14.90;;;;;;;-0.34;100.00;99140.19;6249279;28;20066;-73
2021/01/29 09:49:24;;;;;;;33.72;15.30;;;;;;;-0.29;100.00;99141.69;6250135;28;20072;-75
2021/01/29 09:52:32;;;;;;;26.38;15.50;;;;;;;-0.32;100.00;99140.97;6250058;28;20053;-75
2021/01/29 09:55:38;;;;;;;30.33;16.35;;;;;;;-0.40;100.00;99136.09;6250102;28;20061;-75
2021/01/29 09:59:17;;;;;;;30.70;16.02;;;;;;;-0.44;100.00;99138.81;6249107;28;20057;-74
2021/01/29 10:02:23;;;;;;;;;;;;;;;-0.44;100.00;99136.25;6250150;28;20049;-74
2021/01/29 10:05:29;;;;;;;29.33;14.20;;;;;;;-0.18;100.00;99127.56;6249668;28;19921;-72
2021/01/29 10:08:34;;;;;;;33.45;16.10;;;;;;;-0.35;100.00;99141.09;6249244;28;20152;-72
2021/01/29 10:11:43;;;;;;;27.95;15.05;;;;;;;-0.29;100.00;99135.69;6249423;28;20564;-77
2021/01/29 10:14:53;;;;;;;26.83;15.02;;;;;;;-0.29;100.00;99140.84;6249361;28;20433;-76
2021/01/29 10:17:59;;;;;;;34.05;14.35;;;;;;;-0.31;100.00;99124.59;6248940;28;20052;-74
2021/01/29 10:21:07;;;;;;;27.38;14.18;;;;;;;-0.33;100.00;99126.38;6248612;28;20058;-75
2021/01/29 10:24:16;;;;;;;27.98;14.25;;;;;;;-0.28;100.00;99114.97;6249150;28;20053;-77
2021/01/29 10:27:25;;;;;;;24.75;14.00;;;;;;;-0.25;100.00;99111.47;6249173;28;20053;-76
2021/01/29 10:30:31;;;;;;;26.83;13.48;;;;;;;-0.23;100.00;99116.56;6248656;28;20052;-75
2021/01/29 10:33:35;;;;;;;28.25;14.70;;;;;;;-0.35;100.00;99112.69;6249186;28;20052;-74
2021/01/29 10:36:37;;;;;;;32.65;14.00;;;;;;;-0.28;100.00;99114.97;6248647;28;20513;-74
2021/01/29 10:40:00;;;;;;;26.42;15.30;;;;;;;-0.36;100.00;99122.19;6247343;28;20409;-77
2021/01/29 10:43:17;;;;;;;24.42;13.18;;;;;;;-0.29;100.00;99121.06;6242139;28;20041;-78
2021/01/29 10:47:04;;;;;;;25.38;13.45;;;;;;;-0.33;100.00;99114.31;6244081;28;20049;-77
2021/01/29 10:50:13;;;;;;;24.25;13.57;;;;;;;-0.39;100.00;99106.78;6241940;28;20072;-78
2021/01/29 10:53:18;;;;;;;29.08;14.50;;;;;;;-0.36;100.00;99096.38;6247964;28;20053;-77
2021/01/29 10:56:22;;;;;;;23.42;12.60;;;;;;;-0.30;100.00;99103.88;6247731;28;20046;-79
2021/01/29 10:59:29;;;;;;;29.30;14.70;;;;;;;-0.32;100.00;99099.66;6246297;28;20061;-78
2021/01/29 11:02:36;;;;;;;24.45;13.05;;;;;;;-0.40;100.00;99093.97;6245671;28;20045;-79
2021/01/29 11:05:40;;;;;;;24.73;14.00;;;;;;;-0.41;100.00;99089.66;6248054;28;20079;-81
2021/01/29 11:08:47;;;;;;;22.90;11.98;;;;;;;-0.27;100.00;99095.22;6246757;28;20050;-79
2021/01/29 11:11:56;;;;;;;23.65;13.00;;;;;;;-0.21;100.00;99091.56;6240358;28;20049;-78
2021/01/29 11:15:03;;;;;;;22.05;12.27;;;;;;;-0.12;100.00;99093.81;6248062;28;20041;-80
2021/01/29 11:18:12;;;;;;;22.55;12.43;;;;;;;-0.17;100.00;99085.38;6246476;28;20060;-77
2021/01/29 11:21:25;;;;;;;24.77;11.63;;;;;;;-0.11;100.00;99083.41;6246092;28;20050;-75
2021/01/29 11:24:39;;;;;;;22.55;12.32;;;;;;;-0.14;100.00;99068.03;6246828;28;20046;-77
2021/01/29 11:27:49;;;;;;;21.95;11.52;;;;;;;-0.14;100.00;99073.19;6246593;28;20046;-78
2021/01/29 11:30:54;;;;;;;19.15;10.40;;;;;;;-0.11;100.00;99072.25;6245591;28;20049;-78
2021/01/29 11:33:58;;;;;;;18.55;10.77;;;;;;;-0.05;100.00;99064.25;6247605;28;20050;-78
2021/01/29 11:37:09;;;;;;;19.45;10.90;;;;;;;-0.09;100.00;99070.44;6244707;28;20491;-76
2021/01/29 11:40:16;;;;;;;21.38;10.45;;;;;;;-0.07;100.00;99073.81;6246890;28;20045;-76
2021/01/29 11:43:28;;;;;;;19.52;11.18;;;;;;;-0.14;100.00;99068.03;6246605;28;20418;-75
2021/01/29 11:46:32;;;;;;;17.40;10.48;;;;;;;-0.15;100.00;99075.84;6228035;28;20090;-80
2021/01/29 11:49:35;;;;;;;21.38;10.85;;;;;;;-0.25;100.00;99072.75;6269200;28;20053;-78
2021/01/29 11:52:41;;;;;;;19.77;10.70;;;;;;;-0.11;100.00;99062.75;6243911;28;20491;-77
2021/01/29 11:55:47;;;;;;;19.70;9.93;;;;;;;-0.08;100.00;99059.22;6246698;28;20049;-77
2021/01/29 11:58:54;;;;;;;17.27;9.65;;;;;;;-0.15;100.00;99050.84;6245731;28;20050;-79
2021/01/29 12:02:02;;;;;;;21.63;11.82;;;;;;;-0.12;100.00;99035.25;6242100;28;20422;-76
2021/01/29 12:05:26;;;;;;;17.27;10.25;;;;;;;-0.11;100.00;99034.34;6246891;28;20041;-76
2021/01/29 12:08:38;;;;;;;21.02;10.88;;;;;;;-0.14;100.00;99036.22;6246006;28;20053;-78
2021/01/29 12:11:48;;;;;;;16.52;9.50;;;;;;;-0.20;100.00;99033.88;6246414;28;20049;-77
2021/01/29 12:14:58;;;;;;;23.05;12.27;;;;;;;-0.09;100.00;99036.88;6236488;28;20060;-77
2021/01/29 12:18:00;;;;;;;19.75;11.88;;;;;;;-0.22;100.00;99035.69;6243052;28;20045;-78
2021/01/29 12:21:08;;;;;;;19.27;10.80;;;;;;;-0.13;100.00;99031.00;6244856;28;20057;-77
2021/01/29 12:24:22;;;;;;;17.27;10.48;;;;;;;-0.05;100.00;99038.44;6245885;28;20091;-76
2021/01/29 12:27:28;;;;;;;18.67;11.32;;;;;;;-0.14;100.00;99028.47;6244414;28;20052;-78
2021/01/29 12:30:38;;;;;;;17.85;10.82;;;;;;;-0.16;100.00;99040.59;6244076;28;20058;-77
2021/01/29 12:33:49;;;;;;;16.40;10.20;;;;;;;-0.10;100.00;99041.19;6244741;28;20053;-78
2021/01/29 12:36:57;;;;;;;26.45;12.45;;;;;;;-0.11;100.00;99018.03;6241527;28;20049;-78
2021/01/29 12:40:03;;;;;;;16.58;9.43;;;;;;;-0.16;100.00;99015.63;6245809;28;20517;-78
2021/01/29 12:43:14;;;;;;;17.17;10.35;;;;;;;-0.19;100.00;99032.97;6245633;28;20041;-78
2021/01/29 12:46:24;;;;;;;21.83;11.90;;;;;;;-0.26;100.00;99059.00;6245775;28;20049;-79
2021/01/29 12:49:36;;;;;;;18.27;11.05;;;;;;;-0.24;100.00;99061.53;6256016;28;20403;-78
2021/01/29 12:52:44;;;;;;;19.55;10.90;;;;;;;-0.08;100.00;99043.75;6245380;28;20054;-79
2021/01/29 12:55:52;;;;;;;21.67;13.10;;;;;;;-0.27;100.00;99043.59;6246347;28;20057;-81
2021/01/29 12:58:55;;;;;;;16.58;10.55;;;;;;;-0.17;100.00;99032.00;6245274;28;20052;-79
2021/01/29 13:02:04;;;;;;;20.60;10.65;;;;;;;-0.36;100.00;99047.34;6246425;28;20050;-82
2021/01/29 13:05:15;;;;;;;19.27;11.23;;;;;;;-0.29;100.00;99048.78;6246335;28;20045;-79
2021/01/29 13:11:35;;;;;;;21.73;12.88;;;;;;;-0.22;100.00;99040.84;6241136;28;20061;-76
2021/01/29 13:14:47;;;;;;;27.40;14.70;;;;;;;-0.13;100.00;99045.66;6246991;28;20125;-75
2021/01/29 13:17:58;;;;;;;28.50;14.90;;;;;;;-0.15;100.00;99037.13;6245078;28;20045;-75
2021/01/29 13:21:07;;;;;;;22.58;13.18;;;;;;;-0.11;100.00;99029.19;6245348;28;20056;-75
2021/01/29 13:24:20;;;;;;;21.52;12.13;;;;;;;-0.03;100.00;99029.75;6246062;28;20046;-75
2021/01/29 13:27:34;;;;;;;18.95;11.07;;;;;;;0.13;100.00;99024.00;6245591;28;20058;-76
2021/01/29 13:30:37;;;;;;;20.40;12.85;;;;;;;0.06;100.00;99025.97;6245525;28;20053;-76
2021/01/29 13:33:46;;;;;;;23.08;13.95;;;;;;;-0.04;100.00;99019.50;6245828;28;20049;-77
2021/01/29 13:37:01;;;;;;;22.88;13.18;;;;;;;-0.04;100.00;99027.25;6245685;28;20053;-76
2021/01/29 13:40:07;;;;;;;19.15;12.30;;;;;;;0.11;100.00;99033.56;6245409;28;20556;-76
2021/01/29 13:43:17;;;;;;;21.63;13.10;;;;;;;0.04;100.00;99026.94;6244354;28;20048;-75
2021/01/29 13:46:26;;;;;;;22.85;14.25;;;;;;;0.09;100.00;99025.00;6244182;28;20391;-75
2021/01/29 13:49:32;;;;;;;21.70;13.57;;;;;;;0.04;100.00;99014.03;6219771;28;20425;-74
2021/01/29 13:52:36;;;;;;;20.20;12.80;;;;;;;0.11;100.00;99025.81;6221791;28;20056;-76
2021/01/29 13:55:42;;;;;;;21.45;13.88;;;;;;;0.13;100.00;99035.16;6225314;28;20399;-75
2021/01/29 13:58:49;;;;;;;30.20;14.63;;;;;;;0.06;100.00;99025.16;6225727;28;20049;-76
2021/01/29 14:01:55;;;;;;;20.92;13.65;;;;;;;0.02;100.00;99018.41;6225124;28;20092;-76
2021/01/29 14:05:01;;;;;;;22.50;12.73;;;;;;;0.03;100.00;99020.94;6224938;28;20053;-76
2021/01/29 14:08:06;;;;;;;27.95;13.77;;;;;;;0.02;100.00;99023.56;6225431;28;20482;-76
2021/01/29 14:11:17;;;;;;;22.52;13.27;;;;;;;0.05;100.00;99038.97;6220000;28;20130;-75
2021/01/29 14:14:24;;;;;;;24.63;13.95;;;;;;;0.02;100.00;99021.84;6219684;28;20499;-75
2021/01/29 14:17:33;;;;;;;27.55;14.07;;;;;;;0.01;100.00;99024.47;6213122;28;20053;-74
2021/01/29 14:20:42;;;;;;;23.17;12.52;;;;;;;-0.05;100.00;99036.69;6216997;28;20065;-74
2021/01/29 14:23:49;;;;;;;;;;;;;;;-0.04;100.00;99028.09;6224154;28;20045;-74
2021/01/29 14:26:55;;;;;;;22.83;12.20;;;;;;;-0.07;100.00;99030.75;6216873;28;19975;-74
2021/01/29 14:30:06;;;;;;;25.33;12.88;;;;;;;0.01;100.00;99030.50;6219645;28;20117;-73
2021/01/29 14:33:17;;;;;;;49.80;16.38;;;;;;;0.05;100.00;99034.63;6207786;28;20046;-73
2021/01/29 14:36:19;;;;;;;67.32;19.08;;;;;;;0.01;100.00;99034.81;6215388;28;20407;-73
2021/01/29 14:39:41;;;;;;;19.25;11.27;;;;;;;0.01;100.00;99037.41;6199730;28;20050;-73
2021/01/29 14:43:03;;;;;;;25.40;14.90;;;;;;;-0.07;100.00;99033.34;6200372;28;20042;-73
2021/01/29 14:46:13;;;;;;;19.55;12.40;;;;;;;-0.01;100.00;99037.44;6222261;28;20046;-73